createdAt,value
2019-05-20T00:01:51.128Z,76.21
2019-05-20T00:04:21.732Z,76.51
2019-05-20T00:06:52.356Z,76.73
2019-05-20T00:09:22.967Z,76.03
2019-05-20T00:11:53.885Z,76.30
2019-05-20T00:14:25.619Z,75.94
2019-05-20T00:16:56.332Z,76.99
2019-05-20T00:19:26.967Z,76.78
2019-05-20T00:21:57.675Z,76.09
2019-05-20T00:24:28.261Z,76.44
2019-05-20T00:26:59.964Z,76.78
2019-05-20T00:29:30.613Z,77.14
2019-05-20T00:32:01.447Z,76.72
2019-05-20T00:34:35.258Z,76.74
2019-05-20T00:37:08.738Z,76.42
2019-05-20T00:39:39.404Z,76.61
2019-05-20T00:42:10.136Z,77.20
2019-05-20T00:44:41.859Z,77.16
2019-05-20T00:47:12.539Z,77.40
2019-05-20T00:49:43.078Z,77.08
2019-05-20T00:52:13.769Z,77.58
2019-05-20T00:54:44.510Z,77.75
2019-05-20T00:57:16.193Z,77.65
2019-05-20T00:59:46.777Z,77.67
2019-05-20T01:02:22.442Z,77.83
2019-05-20T01:04:53.037Z,78.06
2019-05-20T01:07:28.718Z,78.43
2019-05-20T01:09:59.336Z,78.35
2019-05-20T01:12:30.024Z,78.34
2019-05-20T01:15:00.678Z,78.29
2019-05-20T01:17:31.335Z,78.20
2019-05-20T01:20:02.037Z,78.56
2019-05-20T01:22:32.640Z,78.63
2019-05-20T01:25:03.414Z,78.85
2019-05-20T01:27:44.021Z,78.54
2019-05-20T01:30:15.022Z,79.03
2019-05-20T01:32:45.622Z,79.07
2019-05-20T01:35:16.222Z,78.95
2019-05-20T01:37:46.874Z,79.19
2019-05-20T01:40:17.772Z,79.33
2019-05-20T01:42:50.358Z,79.32
2019-05-20T01:45:20.977Z,78.94
2019-05-20T01:47:51.669Z,79.18
2019-05-20T01:50:22.347Z,79.60
2019-05-20T01:52:53.020Z,80.80
2019-05-20T01:55:23.677Z,81.23
2019-05-20T01:57:56.295Z,81.12
2019-05-20T02:00:26.906Z,81.14
2019-05-20T02:02:57.794Z,81.11
2019-05-20T02:05:29.226Z,80.87
2019-05-20T02:07:59.996Z,80.50
2019-05-20T02:10:34.543Z,81.06
2019-05-20T02:13:06.792Z,80.87
2019-05-20T02:15:52.876Z,81.41
2019-05-20T02:18:25.196Z,80.97
2019-05-20T02:20:57.466Z,80.83
2019-05-20T02:23:29.726Z,80.71
2019-05-20T02:26:02.007Z,80.76
2019-05-20T02:28:34.169Z,80.60
2019-05-20T02:31:06.608Z,80.74
2019-05-20T02:33:51.072Z,80.79
2019-05-20T02:36:12.881Z,81.42
2019-05-20T02:38:45.364Z,81.42
2019-05-20T02:41:17.606Z,81.67
2019-05-20T02:43:50.195Z,81.87
2019-05-20T02:46:21.697Z,81.73
2019-05-20T02:48:54.915Z,81.49
2019-05-20T02:51:33.263Z,81.40
2019-05-20T02:54:06.068Z,81.36
2019-05-20T02:56:39.478Z,81.10
2019-05-20T02:59:11.056Z,81.05
2019-05-20T03:01:41.826Z,81.17
2019-05-20T03:04:13.245Z,80.71
2019-05-20T03:06:44.098Z,80.81
2019-05-20T03:09:14.741Z,80.18
2019-05-20T03:11:45.517Z,80.51
2019-05-20T03:14:17.086Z,80.64
2019-05-20T03:16:51.485Z,80.60
2019-05-20T03:19:22.965Z,80.49
2019-05-20T03:21:54.216Z,80.60
2019-05-20T03:24:26.463Z,80.65
2019-05-20T03:26:58.210Z,81.10
2019-05-20T03:29:29.411Z,80.72
2019-05-20T03:32:00.933Z,80.58
2019-05-20T03:34:47.969Z,80.76
2019-05-20T03:37:07.288Z,80.54
2019-05-20T03:39:39.207Z,80.44
2019-05-20T03:42:10.360Z,80.17
2019-05-20T03:44:41.512Z,80.84
2019-05-20T03:47:12.167Z,80.88
2019-05-20T03:49:43.056Z,80.08
2019-05-20T03:52:13.893Z,80.19
2019-05-20T03:54:44.746Z,80.31
2019-05-20T03:57:17.603Z,79.97
2019-05-20T03:59:49.375Z,80.29
2019-05-20T04:02:22.217Z,79.90
2019-05-20T04:05:02.451Z,79.98
2019-05-20T04:07:31.325Z,80.00
2019-05-20T04:10:03.208Z,79.89
2019-05-20T04:12:33.907Z,79.76
2019-05-20T04:15:12.377Z,79.22
2019-05-20T04:17:43.326Z,79.88
2019-05-20T04:20:15.350Z,79.76
2019-05-20T04:22:47.186Z,79.74
2019-05-20T04:25:17.867Z,79.24
2019-05-20T04:27:50.542Z,79.13
2019-05-20T04:30:21.348Z,79.25
2019-05-20T04:32:53.998Z,79.60
2019-05-20T04:35:25.136Z,79.34
2019-05-20T04:37:55.876Z,79.42
2019-05-20T04:40:26.533Z,79.57
2019-05-20T04:42:57.163Z,80.03
2019-05-20T04:45:27.980Z,79.93
2019-05-20T04:47:58.713Z,79.76
2019-05-20T04:50:32.747Z,80.12
2019-05-20T04:53:10.032Z,79.77
2019-05-20T04:55:40.632Z,79.71
2019-05-20T04:58:11.194Z,79.85
2019-05-20T05:00:55.484Z,79.32
2019-05-20T05:03:32.215Z,79.27
2019-05-20T05:06:03.965Z,79.12
2019-05-20T05:08:34.669Z,78.96
2019-05-20T05:11:07.323Z,79.50
2019-05-20T05:13:46.352Z,79.36
2019-05-20T05:16:22.539Z,79.41
2019-05-20T05:19:08.532Z,79.03
2019-05-20T05:21:39.172Z,78.76
2019-05-20T05:24:09.856Z,78.79
2019-05-20T05:26:49.871Z,78.43
2019-05-20T05:29:25.417Z,79.17
2019-05-20T05:32:04.229Z,78.79
2019-05-20T05:34:34.863Z,78.96
2019-05-20T05:37:05.489Z,78.63
2019-05-20T05:39:39.310Z,78.25
2019-05-20T05:42:09.932Z,77.88
2019-05-20T05:44:45.507Z,78.01
2019-05-20T05:47:21.248Z,77.89
2019-05-20T05:49:51.835Z,78.74
2019-05-20T05:52:23.069Z,78.56
2019-05-20T05:54:53.759Z,79.01
2019-05-20T05:57:24.463Z,78.58
2019-05-20T05:59:57.134Z,78.48
2019-05-20T06:02:27.804Z,78.39
2019-05-20T06:04:58.370Z,78.16
2019-05-20T06:07:29.109Z,78.23
2019-05-20T06:09:59.679Z,78.04
2019-05-20T06:12:51.668Z,77.60
2019-05-20T06:15:24.375Z,77.57
2019-05-20T06:17:55.162Z,77.87
2019-05-20T06:20:26.863Z,78.00
2019-05-20T06:22:57.543Z,78.02
2019-05-20T06:25:28.264Z,77.53
2019-05-20T06:28:07.992Z,77.30
2019-05-20T06:30:42.204Z,77.87
2019-05-20T06:33:12.867Z,77.83
2019-05-20T06:35:43.474Z,77.77
2019-05-20T06:38:17.808Z,77.74
2019-05-20T06:40:48.400Z,77.19
2019-05-20T06:43:24.072Z,78.38
2019-05-20T06:45:54.682Z,77.76
2019-05-20T06:48:29.975Z,77.48
2019-05-20T06:51:00.709Z,77.31
2019-05-20T06:53:31.414Z,77.69
2019-05-20T06:56:05.225Z,77.88
2019-05-20T06:58:35.962Z,77.66
2019-05-20T07:01:06.708Z,77.37
2019-05-20T07:03:37.478Z,77.86
2019-05-20T07:06:08.220Z,77.15
2019-05-20T07:08:38.929Z,76.84
2019-05-20T07:11:09.713Z,76.29
2019-05-20T07:13:40.472Z,76.59
2019-05-20T07:16:12.557Z,76.43
2019-05-20T07:18:43.563Z,76.21
2019-05-20T07:21:18.230Z,76.12
2019-05-20T07:23:52.276Z,76.06
2019-05-20T07:26:21.812Z,76.70
2019-05-20T07:28:53.097Z,77.16
2019-05-20T07:31:35.198Z,76.50
2019-05-20T07:34:06.203Z,76.04
2019-05-20T07:36:37.957Z,75.88
2019-05-20T07:39:08.719Z,75.29
2019-05-20T07:41:41.736Z,75.62
2019-05-20T07:44:12.870Z,76.28
2019-05-20T07:46:43.668Z,75.85
2019-05-20T07:49:15.686Z,75.62
2019-05-20T07:51:46.560Z,75.63
2019-05-20T07:54:20.277Z,76.08
2019-05-20T07:57:12.171Z,75.15
2019-05-20T07:59:43.174Z,74.90
2019-05-20T08:02:13.901Z,74.82
2019-05-20T08:04:47.919Z,75.06
2019-05-20T08:07:29.776Z,75.01
2019-05-20T08:09:52.104Z,75.30
2019-05-20T08:12:23.610Z,74.81
2019-05-20T08:14:54.389Z,75.84
2019-05-20T08:17:28.340Z,76.00
2019-05-20T08:19:59.297Z,76.22
2019-05-20T08:22:33.240Z,75.99
2019-05-20T08:25:04.529Z,75.65
2019-05-20T08:27:35.328Z,75.73
2019-05-20T08:30:06.841Z,75.88
2019-05-20T08:32:37.591Z,75.31
2019-05-20T08:35:08.657Z,74.66
2019-05-20T08:37:45.405Z,74.74
2019-05-20T08:40:17.972Z,74.62
2019-05-20T08:43:04.968Z,74.62
2019-05-20T08:45:35.909Z,74.82
2019-05-20T08:48:22.933Z,75.09
2019-05-20T08:50:53.771Z,75.02
2019-05-20T08:53:24.472Z,73.86
2019-05-20T08:55:55.289Z,74.27
2019-05-20T08:58:36.711Z,73.96
2019-05-20T09:01:10.441Z,74.43
2019-05-20T09:03:41.668Z,74.65
2019-05-20T09:06:13.394Z,74.45
2019-05-20T09:08:45.386Z,73.39
2019-05-20T09:11:16.278Z,73.93
2019-05-20T09:13:47.135Z,74.16
2019-05-20T09:16:18.123Z,74.38
2019-05-20T09:18:48.806Z,74.44
2019-05-20T09:21:19.525Z,74.24
2019-05-20T09:23:50.186Z,73.78
2019-05-20T09:26:20.884Z,72.99
2019-05-20T09:28:51.597Z,73.05
2019-05-20T09:31:22.384Z,72.82
2019-05-20T09:33:53.301Z,73.91
2019-05-20T09:36:29.313Z,73.75
2019-05-20T09:39:00.280Z,73.02
2019-05-20T09:41:33.575Z,72.87
2019-05-20T09:44:04.520Z,72.95
2019-05-20T09:46:35.267Z,72.82
2019-05-20T09:49:07.207Z,73.43
2019-05-20T09:51:37.889Z,72.58
2019-05-20T09:54:08.645Z,73.00
2019-05-20T09:56:39.409Z,72.84
2019-05-20T09:59:10.095Z,72.65
2019-05-20T10:01:40.831Z,72.22
2019-05-20T10:04:11.494Z,71.74
2019-05-20T10:06:42.259Z,71.87
2019-05-20T10:09:13.055Z,72.67
2019-05-20T10:11:43.730Z,72.54
2019-05-20T10:14:14.467Z,73.53
2019-05-20T10:16:45.221Z,73.15
2019-05-20T10:19:15.974Z,72.81
2019-05-20T10:21:46.853Z,72.97
2019-05-20T10:24:17.513Z,72.52
2019-05-20T10:27:00.266Z,72.58
2019-05-20T10:29:33.239Z,72.23
2019-05-20T10:32:11.139Z,72.15
2019-05-20T10:34:47.799Z,72.14
2019-05-20T10:37:25.988Z,72.89
2019-05-20T10:39:59.031Z,72.66
2019-05-20T10:42:29.835Z,72.31
2019-05-20T10:45:06.244Z,71.72
2019-05-20T10:47:36.973Z,71.00
2019-05-20T10:50:07.951Z,71.95
2019-05-20T10:52:38.622Z,72.00
2019-05-20T10:55:09.570Z,72.00
2019-05-20T10:57:40.495Z,71.93
2019-05-20T11:00:11.522Z,72.61
2019-05-20T11:02:49.247Z,71.41
2019-05-20T11:05:45.635Z,71.94
2019-05-20T11:08:16.386Z,70.92
2019-05-20T11:10:47.155Z,71.24
2019-05-20T11:13:17.889Z,71.29
2019-05-20T11:15:48.765Z,71.86
2019-05-20T11:18:19.573Z,71.74
2019-05-20T11:20:50.238Z,72.32
2019-05-20T11:23:20.934Z,71.39
2019-05-20T11:25:53.610Z,71.49
2019-05-20T11:28:24.449Z,71.40
2019-05-20T11:30:55.340Z,71.66
2019-05-20T11:33:26.111Z,71.23
2019-05-20T11:35:56.885Z,71.85
2019-05-20T11:38:27.793Z,71.44
2019-05-20T11:40:58.552Z,71.99
2019-05-20T11:43:29.299Z,72.18
2019-05-20T11:46:01.021Z,71.51
2019-05-20T11:48:32.676Z,71.50
2019-05-20T11:51:03.525Z,71.59
2019-05-20T11:53:34.892Z,72.02
2019-05-20T11:56:05.854Z,72.14
2019-05-20T11:58:41.355Z,71.52
2019-05-20T12:01:13.226Z,70.83
2019-05-20T12:03:43.941Z,72.16
2019-05-20T12:06:23.554Z,72.04
2019-05-20T12:09:06.927Z,72.33
2019-05-20T12:11:37.802Z,72.71
2019-05-20T12:14:08.579Z,73.22
2019-05-20T12:16:40.234Z,72.64
2019-05-20T12:19:11.060Z,72.53
2019-05-20T12:21:41.867Z,71.97
2019-05-20T12:24:12.536Z,72.21
2019-05-20T12:26:43.314Z,72.55
2019-05-20T12:29:14.161Z,72.29
2019-05-20T12:31:44.934Z,71.69
2019-05-20T12:34:15.859Z,72.36
2019-05-20T12:36:47.708Z,73.16
2019-05-20T12:39:18.801Z,73.21
2019-05-20T12:41:50.020Z,72.48
2019-05-20T12:44:20.928Z,73.03
2019-05-20T12:46:52.620Z,72.50
2019-05-20T12:49:23.638Z,72.23
2019-05-20T12:52:01.744Z,72.09
2019-05-20T12:54:32.410Z,71.80
2019-05-20T12:57:03.299Z,71.71
2019-05-20T12:59:34.131Z,71.92
2019-05-20T13:02:11.175Z,72.00
2019-05-20T13:04:53.864Z,71.56
2019-05-20T13:07:25.760Z,71.50
2019-05-20T13:09:56.995Z,70.99
2019-05-20T13:12:29.738Z,71.00
2019-05-20T13:15:00.422Z,70.69
2019-05-20T13:17:32.406Z,70.62
2019-05-20T13:20:09.377Z,71.04
2019-05-20T13:22:41.577Z,71.02
2019-05-20T13:25:12.641Z,71.12
2019-05-20T13:27:44.544Z,71.33
2019-05-20T13:30:17.239Z,71.00
2019-05-20T13:32:48.017Z,70.65
2019-05-20T13:35:24.528Z,70.09
2019-05-20T13:37:56.276Z,70.34
2019-05-20T13:40:42.948Z,70.33
2019-05-20T13:43:05.995Z,69.86
2019-05-20T13:45:40.047Z,70.33
2019-05-20T13:48:11.785Z,69.85
2019-05-20T13:51:02.722Z,70.07
2019-05-20T13:53:33.513Z,70.38
2019-05-20T13:56:11.984Z,70.09
2019-05-20T13:58:42.727Z,70.30
2019-05-20T14:01:20.078Z,69.94
2019-05-20T14:03:57.111Z,70.35
2019-05-20T14:06:29.402Z,70.24
2019-05-20T14:09:00.259Z,70.25
2019-05-20T14:11:34.487Z,70.25
2019-05-20T14:14:04.576Z,69.99
2019-05-20T14:16:40.436Z,70.26
2019-05-20T14:19:15.463Z,70.61
2019-05-20T14:21:50.518Z,70.21
2019-05-20T14:24:21.263Z,70.74
2019-05-20T14:26:52.343Z,70.31
2019-05-20T14:29:24.036Z,70.69
2019-05-20T14:31:58.518Z,70.14
2019-05-20T14:34:29.301Z,70.40
2019-05-20T14:37:00.223Z,70.10
2019-05-20T14:39:32.063Z,70.46
2019-05-20T14:42:03.032Z,70.54
2019-05-20T14:44:33.879Z,70.38
2019-05-20T14:47:04.785Z,69.37
2019-05-20T14:49:35.456Z,69.72
2019-05-20T14:52:06.453Z,70.23
2019-05-20T14:54:44.188Z,69.79
2019-05-20T14:57:26.098Z,69.97
2019-05-20T15:00:03.076Z,70.30
2019-05-20T15:02:37.824Z,70.46
2019-05-20T15:05:23.013Z,70.23
2019-05-20T15:07:54.081Z,70.45
2019-05-20T15:10:25.922Z,70.55
2019-05-20T15:12:56.688Z,70.32
2019-05-20T15:15:30.673Z,70.66
2019-05-20T15:18:03.574Z,70.48
2019-05-20T15:20:44.934Z,70.15
2019-05-20T15:23:15.649Z,70.16
2019-05-20T15:25:52.031Z,70.12
2019-05-20T15:28:22.719Z,70.04
2019-05-20T15:30:54.543Z,70.48
2019-05-20T15:33:25.405Z,70.22
2019-05-20T15:35:58.724Z,70.56
2019-05-20T15:38:31.028Z,70.97
2019-05-20T15:41:05.742Z,69.86
2019-05-20T15:43:38.296Z,69.86
2019-05-20T15:46:23.566Z,70.30
2019-05-20T15:49:00.672Z,70.65
2019-05-20T15:51:40.873Z,70.81
2019-05-20T15:54:13.753Z,70.14
2019-05-20T15:56:44.376Z,70.53
2019-05-20T15:59:20.861Z,70.63
2019-05-20T16:01:58.948Z,71.03
2019-05-20T16:04:36.594Z,70.81
2019-05-20T16:07:08.309Z,70.48
2019-05-20T16:09:40.007Z,70.74
2019-05-20T16:12:12.610Z,70.79
2019-05-20T16:14:51.601Z,70.53
2019-05-20T16:17:22.540Z,70.91
2019-05-20T16:19:53.344Z,70.84
2019-05-20T16:22:31.521Z,71.21
2019-05-20T16:25:09.597Z,71.73
2019-05-20T16:27:40.552Z,71.76
2019-05-20T16:30:12.442Z,72.07
2019-05-20T16:32:43.429Z,71.52
2019-05-20T16:35:15.577Z,71.36
2019-05-20T16:37:46.245Z,71.71
2019-05-20T16:40:17.029Z,71.80
2019-05-20T16:42:53.001Z,71.65
2019-05-20T16:45:32.567Z,71.51
2019-05-20T16:48:04.338Z,71.43
2019-05-20T16:50:45.536Z,71.23
2019-05-20T16:53:16.263Z,71.20
2019-05-20T16:55:52.698Z,71.23
2019-05-20T16:58:28.329Z,71.02
2019-05-20T17:00:59.085Z,71.16
2019-05-20T17:03:33.232Z,71.17
2019-05-20T17:06:03.945Z,71.37
2019-05-20T17:08:34.629Z,71.22
2019-05-20T17:11:05.432Z,71.36
2019-05-20T17:13:36.067Z,71.74
2019-05-20T17:16:07.659Z,71.51
2019-05-20T17:18:39.434Z,70.83
2019-05-20T17:21:12.068Z,70.37
2019-05-20T17:23:47.559Z,70.87
2019-05-20T17:26:21.051Z,70.83
2019-05-20T17:28:53.779Z,70.78
2019-05-20T17:31:26.750Z,70.35
2019-05-20T17:33:58.215Z,71.09
2019-05-20T17:36:29.037Z,71.26
2019-05-20T17:39:02.982Z,70.98
2019-05-20T17:41:33.962Z,71.19
2019-05-20T17:44:04.958Z,71.13
2019-05-20T17:46:35.958Z,70.99
2019-05-20T17:49:07.597Z,70.99
2019-05-20T17:51:38.262Z,70.80
2019-05-20T17:54:09.045Z,70.54
2019-05-20T17:56:40.467Z,70.48
2019-05-20T17:59:13.221Z,70.81
2019-05-20T18:01:43.905Z,71.17
2019-05-20T18:04:16.663Z,71.23
2019-05-20T18:10:16.417Z,71.06
2019-05-20T18:16:09.093Z,70.78
2019-05-20T18:18:41.933Z,70.85
2019-05-20T18:21:15.174Z,70.73
2019-05-20T18:23:48.673Z,70.59
2019-05-20T18:26:20.138Z,70.50
2019-05-20T18:28:51.093Z,70.65
2019-05-20T18:31:32.138Z,71.06
2019-05-20T18:33:54.556Z,70.87
2019-05-20T18:36:25.219Z,69.96
2019-05-20T18:38:56.193Z,70.25
2019-05-20T18:41:27.615Z,70.75
2019-05-20T18:43:59.492Z,70.77
2019-05-20T18:46:31.297Z,71.15
2019-05-20T18:49:03.578Z,70.50
2019-05-20T18:51:34.257Z,71.11
2019-05-20T18:54:06.035Z,70.86
2019-05-20T18:56:38.108Z,70.96
2019-05-20T18:59:09.624Z,70.65
2019-05-20T19:02:02.337Z,71.54
2019-05-20T19:04:20.228Z,71.74
2019-05-20T19:06:51.045Z,71.90
2019-05-20T19:09:24.157Z,71.54
2019-05-20T19:11:56.063Z,71.62
2019-05-20T19:14:27.108Z,71.71
2019-05-20T19:16:59.056Z,72.36
2019-05-20T19:19:33.398Z,72.07
2019-05-20T19:22:07.449Z,72.50
2019-05-20T19:24:38.217Z,72.43
2019-05-20T19:27:09.009Z,72.12
2019-05-20T19:29:41.649Z,72.12
2019-05-20T19:32:14.113Z,72.79
2019-05-20T19:34:47.214Z,73.20
2019-05-20T19:37:23.746Z,72.99
2019-05-20T19:40:00.937Z,73.15
2019-05-20T19:42:38.050Z,73.30
2019-05-20T19:45:15.233Z,73.15
2019-05-20T19:47:49.933Z,73.44
2019-05-20T19:50:20.627Z,73.72
2019-05-20T19:52:54.903Z,73.52
2019-05-20T19:55:40.202Z,73.63
2019-05-20T19:58:11.951Z,73.93
2019-05-20T20:00:43.498Z,73.82
2019-05-20T20:03:14.480Z,73.97
2019-05-20T20:05:56.372Z,73.96
2019-05-20T20:08:28.320Z,74.50
2019-05-20T20:11:06.243Z,74.05
2019-05-20T20:13:40.296Z,74.09
2019-05-20T20:16:17.373Z,73.88
2019-05-20T20:18:45.270Z,73.71
2019-05-20T20:21:16.637Z,73.64
2019-05-20T20:23:52.411Z,74.05
2019-05-20T20:26:27.108Z,74.14
2019-05-20T20:28:59.021Z,73.86
2019-05-20T20:31:29.627Z,74.04
2019-05-20T20:34:05.723Z,74.30
2019-05-20T20:36:46.186Z,74.09
2019-05-20T20:39:21.518Z,74.07
2019-05-20T20:41:59.185Z,74.51
2019-05-20T20:44:30.525Z,74.84
2019-05-20T20:47:42.483Z,74.51
2019-05-20T20:50:13.622Z,74.27
2019-05-20T20:52:45.927Z,74.39
2019-05-20T20:55:16.982Z,74.59
2019-05-20T20:57:47.656Z,74.27
2019-05-20T21:00:19.656Z,74.05
2019-05-20T21:02:53.467Z,74.84
2019-05-20T21:05:23.028Z,74.46
2019-05-20T21:07:54.827Z,74.47
2019-05-20T21:10:26.027Z,74.48
2019-05-20T21:12:58.129Z,74.40
2019-05-20T21:15:29.870Z,74.66
2019-05-20T21:18:03.374Z,74.63
2019-05-20T21:20:35.440Z,74.90
2019-05-20T21:23:06.332Z,74.68
2019-05-20T21:25:38.239Z,74.38
2019-05-20T21:28:14.269Z,74.49
2019-05-20T21:30:47.524Z,74.82
2019-05-20T21:33:20.888Z,75.04
2019-05-20T21:36:14.593Z,75.13
2019-05-20T21:38:45.524Z,75.15
2019-05-20T21:41:16.440Z,75.27
2019-05-20T21:43:47.053Z,75.15
2019-05-20T21:46:25.934Z,75.09
2019-05-20T21:48:57.622Z,75.25
2019-05-20T21:51:35.727Z,75.08
2019-05-20T21:54:06.489Z,74.75
2019-05-20T21:56:38.000Z,75.00
2019-05-20T21:59:10.973Z,75.09
2019-05-20T22:01:42.062Z,75.21
2019-05-20T22:04:13.924Z,75.34
2019-05-20T22:06:46.059Z,75.44
2019-05-20T22:09:18.877Z,75.59
2019-05-20T22:11:52.736Z,75.55
2019-05-20T22:14:23.531Z,75.77
2019-05-20T22:16:54.813Z,75.32
2019-05-20T22:19:25.541Z,75.23
2019-05-20T22:21:57.912Z,75.36
2019-05-20T22:24:29.543Z,75.58
2019-05-20T22:27:01.266Z,75.89
2019-05-20T22:29:32.725Z,76.31
2019-05-20T22:32:03.724Z,76.11
2019-05-20T22:34:36.520Z,76.82
2019-05-20T22:37:18.861Z,77.12
2019-05-20T22:39:49.723Z,77.29
2019-05-20T22:42:20.506Z,77.82
2019-05-20T22:44:52.136Z,78.29
2019-05-20T22:47:22.804Z,77.90
2019-05-20T22:49:53.526Z,78.32
2019-05-20T22:52:24.213Z,78.74
2019-05-20T22:54:54.851Z,79.20
2019-05-20T22:57:31.980Z,79.50
2019-05-20T23:00:09.056Z,80.17
2019-05-20T23:02:42.066Z,80.68
2019-05-20T23:05:18.459Z,80.99
2019-05-20T23:07:49.666Z,80.20
2019-05-20T23:10:20.483Z,80.72
2019-05-20T23:12:51.212Z,81.52
2019-05-20T23:15:21.885Z,81.74
2019-05-20T23:17:53.322Z,81.79
2019-05-20T23:20:27.057Z,81.22
2019-05-20T23:23:07.954Z,81.36
2019-05-20T23:25:40.788Z,81.56
2019-05-20T23:28:21.054Z,80.76
2019-05-20T23:30:51.804Z,81.87
2019-05-20T23:33:22.618Z,81.85
2019-05-20T23:35:56.431Z,82.26
2019-05-20T23:38:27.006Z,82.67
2019-05-20T23:40:58.459Z,82.28
2019-05-20T23:43:30.792Z,82.46
2019-05-20T23:46:02.672Z,82.35
2019-05-20T23:48:43.544Z,82.01
2019-05-20T23:51:14.286Z,82.88
2019-05-20T23:53:45.749Z,82.07
2019-05-20T23:56:26.458Z,82.34
2019-05-20T23:58:57.499Z,82.41
